createdAt,value
2023-04-02T00:00:10.873Z,99086.50
2023-04-02T00:03:13.362Z,99086.94
2023-04-02T00:06:32.961Z,99085.03
2023-04-02T00:09:37.445Z,99086.50
2023-04-02T00:12:39.863Z,99083.84
2023-04-02T00:15:46.160Z,99093.34
2023-04-02T00:18:52.681Z,99092.22
2023-04-02T00:21:57.466Z,99091.84
2023-04-02T00:25:03.994Z,99092.00
2023-04-02T00:28:06.447Z,99079.84
2023-04-02T00:31:11.077Z,99068.78
2023-04-02T00:34:24.164Z,99069.88
2023-04-02T00:37:30.319Z,99064.59
2023-04-02T00:40:32.491Z,99057.63
2023-04-02T00:43:38.491Z,99047.06
2023-04-02T00:46:48.577Z,99041.31
2023-04-02T00:49:58.833Z,99046.13
2023-04-02T00:53:09.092Z,99049.84
2023-04-02T00:56:25.949Z,99044.94
2023-04-02T00:59:35.954Z,99039.88
2023-04-02T01:02:40.960Z,99045.63
2023-04-02T01:05:45.532Z,99041.31
2023-04-02T01:08:55.147Z,99031.91
2023-04-02T01:12:03.402Z,99029.62
2023-04-02T01:15:39.976Z,99032.16
2023-04-02T01:19:02.511Z,99034.16
2023-04-02T01:22:22.377Z,99026.34
2023-04-02T01:25:41.034Z,99033.78
2023-04-02T01:29:06.865Z,99042.03
2023-04-02T01:32:15.144Z,99039.13
2023-04-02T01:35:17.715Z,99036.59
2023-04-02T01:38:38.246Z,99035.66
2023-04-02T01:41:48.360Z,99046.81
2023-04-02T01:44:59.725Z,99042.69
2023-04-02T01:48:24.937Z,99048.19
2023-04-02T01:51:31.888Z,99052.88
2023-04-02T01:54:37.995Z,99056.47
2023-04-02T01:57:47.773Z,99067.38
2023-04-02T02:00:53.468Z,99066.72
2023-04-02T02:03:55.808Z,99071.28
2023-04-02T02:07:02.847Z,99078.69
2023-04-02T02:10:05.889Z,99076.00
2023-04-02T02:13:14.949Z,99080.00
2023-04-02T02:16:18.600Z,99074.94
2023-04-02T02:19:29.043Z,99080.56
2023-04-02T02:22:35.726Z,99085.09
2023-04-02T02:25:38.187Z,99084.47
2023-04-02T02:28:42.835Z,99084.69
2023-04-02T02:31:48.602Z,99082.16
2023-04-02T02:35:00.528Z,99090.69
2023-04-02T02:38:27.179Z,99089.72
2023-04-02T02:41:31.900Z,99098.16
2023-04-02T02:44:37.026Z,99097.00
2023-04-02T02:47:42.417Z,99103.00
2023-04-02T02:50:45.389Z,99102.03
2023-04-02T02:53:53.726Z,99107.09
2023-04-02T02:57:03.333Z,99098.44
2023-04-02T03:00:08.130Z,99106.34
2023-04-02T03:03:34.495Z,99096.91
2023-04-02T03:06:36.865Z,99108.72
2023-04-02T03:10:04.434Z,99114.06
2023-04-02T03:13:32.897Z,99115.16
2023-04-02T03:16:41.209Z,99112.62
2023-04-02T03:19:56.406Z,99110.19
2023-04-02T03:23:13.417Z,99113.66
2023-04-02T03:26:23.281Z,99108.31
2023-04-02T03:29:33.443Z,99112.53
2023-04-02T03:32:39.454Z,99119.47
2023-04-02T03:35:48.225Z,99122.13
2023-04-02T03:39:24.774Z,99128.44
2023-04-02T03:42:30.857Z,99121.69
2023-04-02T03:45:39.852Z,99119.28
2023-04-02T03:48:47.174Z,99123.72
2023-04-02T03:51:57.716Z,99125.59
2023-04-02T03:55:02.803Z,99133.63
2023-04-02T03:58:23.315Z,99130.88
2023-04-02T04:01:52.323Z,99132.56
2023-04-02T04:04:56.659Z,99141.19
2023-04-02T04:08:06.722Z,99140.56
2023-04-02T04:11:20.174Z,99146.06
2023-04-02T04:14:32.405Z,99143.72
2023-04-02T04:17:41.139Z,99150.34
2023-04-02T04:20:57.651Z,99154.91
2023-04-02T04:24:15.033Z,99154.03
2023-04-02T04:27:42.982Z,99150.75
2023-04-02T04:31:02.102Z,99159.62
2023-04-02T04:34:11.763Z,99158.25
2023-04-02T04:37:21.824Z,99161.22
2023-04-02T04:40:28.406Z,99164.81
2023-04-02T04:43:44.278Z,99172.03
2023-04-02T04:47:11.108Z,99175.63
2023-04-02T04:50:21.880Z,99180.59
2023-04-02T04:53:26.488Z,99176.25
2023-04-02T04:56:30.952Z,99189.22
2023-04-02T04:59:44.559Z,99193.25
2023-04-02T05:02:54.495Z,99207.16
2023-04-02T05:06:06.475Z,99210.31
2023-04-02T05:09:13.761Z,99209.06
2023-04-02T05:12:26.920Z,99216.63
2023-04-02T05:15:42.353Z,99220.22
2023-04-02T05:18:51.389Z,99223.72
2023-04-02T05:22:12.097Z,99226.16
2023-04-02T05:25:23.755Z,99229.34
2023-04-02T05:28:38.022Z,99232.41
2023-04-02T05:31:48.993Z,99228.72
2023-04-02T05:34:55.089Z,99239.13
2023-04-02T05:37:58.214Z,99254.75
2023-04-02T05:41:27.239Z,99245.66
2023-04-02T05:44:38.582Z,99243.03
2023-04-02T05:47:43.911Z,99242.81
2023-04-02T05:50:51.333Z,99247.16
2023-04-02T05:53:58.780Z,99252.13
2023-04-02T05:57:08.019Z,99254.53
2023-04-02T06:00:23.826Z,99260.97
2023-04-02T06:03:28.610Z,99261.59
2023-04-02T06:06:39.873Z,99263.47
2023-04-02T06:10:05.143Z,99265.59
2023-04-02T06:13:08.740Z,99269.50
2023-04-02T06:16:15.288Z,99266.19
2023-04-02T06:19:34.160Z,99268.41
2023-04-02T06:22:43.568Z,99266.47
2023-04-02T06:26:20.766Z,99272.34
2023-04-02T06:29:40.219Z,99284.91
2023-04-02T06:32:42.430Z,99284.00
2023-04-02T06:35:47.189Z,99286.59
2023-04-02T06:38:51.221Z,99283.66
2023-04-02T06:42:24.971Z,99285.63
2023-04-02T06:45:33.473Z,99294.03
2023-04-02T06:48:38.140Z,99297.56
2023-04-02T06:51:43.668Z,99299.25
2023-04-02T06:54:47.464Z,99313.38
2023-04-02T06:57:49.732Z,99310.09
2023-04-02T07:00:52.401Z,99314.78
2023-04-02T07:03:55.444Z,99317.66
2023-04-02T07:06:57.663Z,99322.87
2023-04-02T07:09:59.844Z,99322.00
2023-04-02T07:13:02.688Z,99332.16
2023-04-02T07:16:05.282Z,99331.22
2023-04-02T07:19:20.661Z,99330.78
2023-04-02T07:22:22.877Z,99331.81
2023-04-02T07:25:26.923Z,99338.13
2023-04-02T07:28:29.424Z,99345.06
2023-04-02T07:31:31.737Z,99344.34
2023-04-02T07:34:34.515Z,99355.53
2023-04-02T07:37:38.701Z,99357.84
2023-04-02T07:40:41.445Z,99359.09
2023-04-02T07:43:44.819Z,99357.75
2023-04-02T07:46:47.406Z,99367.41
2023-04-02T07:49:49.560Z,99364.72
2023-04-02T07:52:51.684Z,99363.22
2023-04-02T07:55:54.221Z,99372.59
2023-04-02T07:58:56.564Z,99373.91
2023-04-02T08:01:59.128Z,99379.94
2023-04-02T08:05:01.662Z,99380.91
2023-04-02T08:08:03.791Z,99384.84
2023-04-02T08:11:06.622Z,99383.91
2023-04-02T08:14:09.665Z,99379.75
2023-04-02T08:17:12.074Z,99392.56
2023-04-02T08:20:22.636Z,99382.47
2023-04-02T08:23:25.546Z,99385.41
2023-04-02T08:26:27.922Z,99392.97
2023-04-02T08:29:32.452Z,99388.44
2023-04-02T08:32:34.610Z,99394.00
2023-04-02T08:35:37.076Z,99394.31
2023-04-02T08:38:39.367Z,99396.31
2023-04-02T08:42:02.940Z,99391.53
2023-04-02T08:45:23.515Z,99390.97
2023-04-02T08:48:27.374Z,99391.91
2023-04-02T08:51:34.644Z,99390.75
2023-04-02T08:54:38.172Z,99397.50
2023-04-02T08:57:42.858Z,99391.97
2023-04-02T09:00:47.897Z,99396.03
2023-04-02T09:03:52.391Z,99400.97
2023-04-02T09:06:56.832Z,99401.66
2023-04-02T09:09:59.584Z,99405.59
2023-04-02T09:13:03.281Z,99396.25
2023-04-02T09:16:12.357Z,99402.25
2023-04-02T09:19:25.527Z,99405.16
2023-04-02T09:22:38.569Z,99409.75
2023-04-02T09:25:54.096Z,99410.59
2023-04-02T09:29:12.632Z,99413.63
2023-04-02T09:32:28.166Z,99413.63
2023-04-02T09:35:32.937Z,99416.75
2023-04-02T09:38:35.660Z,99420.81
2023-04-02T09:41:38.719Z,99424.75
2023-04-02T09:44:41.404Z,99427.78
2023-04-02T09:47:43.568Z,99422.50
2023-04-02T09:50:45.749Z,99425.38
2023-04-02T09:53:49.606Z,99428.25
2023-04-02T09:57:03.669Z,99427.66
2023-04-02T10:03:33.130Z,99423.81
2023-04-02T10:06:35.405Z,99419.84
2023-04-02T10:09:39.029Z,99418.00
2023-04-02T10:12:42.552Z,99425.53
2023-04-02T10:15:47.375Z,99420.16
2023-04-02T10:19:13.422Z,99419.28
2023-04-02T10:22:18.215Z,99422.72
2023-04-02T10:25:25.448Z,99426.50
2023-04-02T10:28:43.308Z,99420.22
2023-04-02T10:32:07.032Z,99422.19
2023-04-02T10:35:38.353Z,99425.66
2023-04-02T10:38:55.621Z,99424.97
2023-04-02T10:42:21.602Z,99429.22
2023-04-02T10:45:57.753Z,99417.25
2023-04-02T10:49:21.519Z,99422.03
2023-04-02T10:52:23.455Z,99423.69
2023-04-02T10:55:33.959Z,99416.13
2023-04-02T10:58:51.385Z,99415.47
2023-04-02T11:01:56.819Z,99412.75
2023-04-02T11:05:05.975Z,99412.22
2023-04-02T11:08:26.266Z,99409.69
2023-04-02T11:11:36.765Z,99413.81
2023-04-02T11:14:41.177Z,99420.03
2023-04-02T11:17:45.226Z,99410.75
2023-04-02T11:20:50.566Z,99411.25
2023-04-02T11:24:03.450Z,99404.72
2023-04-02T11:27:11.544Z,99393.19
2023-04-02T11:30:18.198Z,99404.06
2023-04-02T11:33:39.171Z,99408.06
2023-04-02T11:37:03.697Z,99412.31
2023-04-02T11:40:12.302Z,99412.47
2023-04-02T11:43:32.938Z,99403.78
2023-04-02T11:46:40.641Z,99405.59
2023-04-02T11:50:01.956Z,99399.31
2023-04-02T11:53:14.973Z,99396.19
2023-04-02T11:56:22.007Z,99397.72
2023-04-02T11:59:33.754Z,99390.41
2023-04-02T12:02:54.020Z,99382.41
2023-04-02T12:06:04.383Z,99378.81
2023-04-02T12:09:34.818Z,99377.28
2023-04-02T12:12:40.581Z,99382.13
2023-04-02T12:15:44.833Z,99375.94
2023-04-02T12:18:54.020Z,99369.97
2023-04-02T12:21:56.753Z,99370.56
2023-04-02T12:25:05.573Z,99369.22
2023-04-02T12:28:14.705Z,99376.44
2023-04-02T12:31:21.766Z,99365.75
2023-04-02T12:34:28.680Z,99361.09
2023-04-02T12:37:31.874Z,99364.62
2023-04-02T12:40:34.401Z,99369.13
2023-04-02T12:43:38.200Z,99368.66
2023-04-02T12:46:40.769Z,99371.91
2023-04-02T12:49:44.947Z,99375.59
2023-04-02T12:52:50.420Z,99367.59
2023-04-02T12:55:54.369Z,99376.91
2023-04-02T12:58:58.285Z,99367.19
2023-04-02T13:02:02.908Z,99370.22
2023-04-02T13:05:05.179Z,99366.44
2023-04-02T13:08:16.650Z,99369.53
2023-04-02T13:11:19.291Z,99358.72
2023-04-02T13:14:24.631Z,99354.53
2023-04-02T13:17:45.473Z,99355.06
2023-04-02T13:21:00.146Z,99362.72
2023-04-02T13:24:02.152Z,99358.19
2023-04-02T13:27:04.830Z,99361.22
2023-04-02T13:30:09.623Z,99363.34
2023-04-02T13:33:12.233Z,99350.81
2023-04-02T13:36:15.411Z,99345.47
2023-04-02T13:39:18.162Z,99354.47
2023-04-02T13:42:20.511Z,99350.28
2023-04-02T13:45:27.536Z,99347.66
2023-04-02T13:48:29.875Z,99353.84
2023-04-02T13:51:37.870Z,99349.41
2023-04-02T13:55:00.164Z,99340.69
2023-04-02T13:58:03.759Z,99344.87
2023-04-02T14:01:06.761Z,99338.06
2023-04-02T14:04:12.912Z,99341.16
2023-04-02T14:07:48.670Z,99343.81
2023-04-02T14:10:54.650Z,99349.69
2023-04-02T14:14:17.425Z,99352.41
2023-04-02T14:17:52.114Z,99354.44
2023-04-02T14:21:19.160Z,99352.84
2023-04-02T14:25:06.430Z,99364.12
2023-04-02T14:28:26.987Z,99357.59
2023-04-02T14:31:47.231Z,99354.16
2023-04-02T14:35:05.142Z,99362.47
2023-04-02T14:38:32.354Z,99346.72
2023-04-02T14:41:46.513Z,99355.91
2023-04-02T14:45:04.668Z,99354.53
2023-04-02T14:48:51.801Z,99358.38
2023-04-02T14:52:06.499Z,99359.03
2023-04-02T14:55:22.830Z,99363.81
2023-04-02T14:59:23.759Z,99373.59
2023-04-02T15:02:46.818Z,99373.59
2023-04-02T15:05:57.675Z,99382.88
2023-04-02T15:09:12.343Z,99393.22
2023-04-02T15:12:36.311Z,99404.81
2023-04-02T15:15:44.592Z,99402.19
2023-04-02T15:18:51.269Z,99407.66
2023-04-02T15:22:28.962Z,99421.87
2023-04-02T15:25:43.383Z,99426.41
2023-04-02T15:29:29.669Z,99430.84
2023-04-02T15:32:35.455Z,99442.69
2023-04-02T15:35:48.017Z,99445.41
2023-04-02T15:39:12.519Z,99460.56
2023-04-02T15:42:31.182Z,99472.22
2023-04-02T15:45:49.357Z,99468.28
2023-04-02T15:48:55.107Z,99471.88
2023-04-02T15:52:13.062Z,99480.44
2023-04-02T15:55:44.551Z,99480.88
2023-04-02T15:59:24.975Z,99484.75
2023-04-02T16:02:59.214Z,99478.88
2023-04-02T16:06:26.911Z,99487.22
2023-04-02T16:09:43.466Z,99485.78
2023-04-02T16:12:46.947Z,99495.69
2023-04-02T16:16:11.345Z,99502.44
2023-04-02T16:19:40.111Z,99505.56
2023-04-02T16:22:59.376Z,99504.84
2023-04-02T16:26:11.179Z,99505.50
2023-04-02T16:29:20.362Z,99518.00
2023-04-02T16:32:46.601Z,99532.94
2023-04-02T16:36:02.380Z,99524.38
2023-04-02T16:39:44.711Z,99527.87
2023-04-02T16:42:51.645Z,99534.22
2023-04-02T16:46:12.504Z,99536.00
2023-04-02T16:49:56.761Z,99551.81
2023-04-02T16:53:54.554Z,99559.91
2023-04-02T16:57:31.579Z,99555.72
2023-04-02T17:00:54.689Z,99577.22
2023-04-02T17:04:29.500Z,99574.44
2023-04-02T17:07:44.770Z,99595.81
2023-04-02T17:10:53.893Z,99597.44
2023-04-02T17:14:07.057Z,99602.41
2023-04-02T17:17:17.743Z,99614.06
2023-04-02T17:20:25.804Z,99615.09
2023-04-02T17:23:32.117Z,99627.34
2023-04-02T17:26:39.111Z,99629.47
2023-04-02T17:29:46.467Z,99630.28
2023-04-02T17:32:49.765Z,99649.59
2023-04-02T17:36:01.610Z,99661.28
2023-04-02T17:39:17.473Z,99659.13
2023-04-02T17:42:48.980Z,99664.06
2023-04-02T17:45:56.111Z,99676.81
2023-04-02T17:49:16.900Z,99687.31
2023-04-02T17:52:48.505Z,99684.88
2023-04-02T17:56:03.839Z,99695.50
2023-04-02T17:59:28.471Z,99704.75
2023-04-02T18:02:47.256Z,99710.50
2023-04-02T18:06:07.350Z,99718.22
2023-04-02T18:09:37.763Z,99719.53
2023-04-02T18:13:09.449Z,99721.72
2023-04-02T18:16:34.203Z,99723.12
2023-04-02T18:20:04.973Z,99729.66
2023-04-02T18:23:38.423Z,99733.84
2023-04-02T18:26:48.532Z,99736.69
2023-04-02T18:30:12.175Z,99740.38
2023-04-02T18:33:25.680Z,99743.94
2023-04-02T18:36:38.661Z,99754.00
2023-04-02T18:40:05.936Z,99755.13
2023-04-02T18:43:27.166Z,99758.13
2023-04-02T18:47:11.656Z,99771.31
2023-04-02T18:50:37.203Z,99779.59
2023-04-02T18:53:42.706Z,99784.16
2023-04-02T18:56:46.611Z,99787.75
2023-04-02T18:59:58.567Z,99797.97
2023-04-02T19:03:01.874Z,99797.31
2023-04-02T19:06:25.029Z,99799.72
2023-04-02T19:09:42.362Z,99814.84
2023-04-02T19:12:46.617Z,99818.78
2023-04-02T19:15:57.530Z,99831.50
2023-04-02T19:19:27.338Z,99830.22
2023-04-02T19:23:10.794Z,99841.03
2023-04-02T19:26:23.606Z,99855.38
2023-04-02T19:30:01.232Z,99867.34
2023-04-02T19:33:42.418Z,99875.41
2023-04-02T19:36:57.351Z,99868.00
2023-04-02T19:40:25.259Z,99873.06
2023-04-02T19:43:28.921Z,99894.84
2023-04-02T19:46:32.230Z,99881.38
2023-04-02T19:49:36.298Z,99875.59
2023-04-02T19:52:39.997Z,99887.25
2023-04-02T19:55:44.616Z,99889.59
2023-04-02T19:58:47.462Z,99904.13
2023-04-02T20:01:51.358Z,99899.03
2023-04-02T20:04:54.198Z,99916.78
2023-04-02T20:07:57.361Z,99909.91
2023-04-02T20:11:00.726Z,99922.59
2023-04-02T20:14:07.262Z,99924.72
2023-04-02T20:17:10.308Z,99938.25
2023-04-02T20:20:14.321Z,99938.66
2023-04-02T20:23:25.216Z,99942.53
2023-04-02T20:26:28.425Z,99934.84
2023-04-02T20:29:32.803Z,99939.41
2023-04-02T20:32:37.803Z,99943.78
2023-04-02T20:35:41.417Z,99940.25
2023-04-02T20:38:46.325Z,99943.16
2023-04-02T20:41:49.103Z,99951.22
2023-04-02T20:44:52.260Z,99957.59
2023-04-02T20:47:55.689Z,99949.81
2023-04-02T20:51:16.965Z,99961.34
2023-04-02T20:54:38.118Z,99958.09
2023-04-02T20:57:40.362Z,99967.66
2023-04-02T21:00:42.563Z,99961.78
2023-04-02T21:03:45.328Z,99968.06
2023-04-02T21:06:47.657Z,99984.88
2023-04-02T21:09:49.727Z,99990.12
2023-04-02T21:12:51.899Z,99990.00
2023-04-02T21:15:53.991Z,99998.28
2023-04-02T21:19:01.155Z,100007.00
2023-04-02T21:22:04.398Z,100010.69
2023-04-02T21:25:06.795Z,100003.78
2023-04-02T21:28:09.347Z,100011.66
2023-04-02T21:31:17.238Z,100014.22
2023-04-02T21:34:19.523Z,100029.03
2023-04-02T21:37:22.952Z,100010.09
2023-04-02T21:40:25.646Z,100026.91
2023-04-02T21:43:27.746Z,100031.34
2023-04-02T21:46:31.930Z,100028.13
2023-04-02T21:49:35.340Z,100029.91
2023-04-02T21:52:37.545Z,100007.34
2023-04-02T21:55:39.713Z,100048.56
2023-04-02T21:58:43.498Z,100035.69
2023-04-02T22:01:50.776Z,100037.37
2023-04-02T22:04:52.940Z,100033.84
2023-04-02T22:07:55.031Z,100045.09
2023-04-02T22:10:57.252Z,100050.19
2023-04-02T22:14:00.304Z,100058.03
2023-04-02T22:17:03.544Z,100062.69
2023-04-02T22:20:06.905Z,100068.78
2023-04-02T22:23:10.437Z,100071.53
2023-04-02T22:26:14.314Z,100072.25
2023-04-02T22:29:17.279Z,100085.41
2023-04-02T22:32:19.413Z,100082.75
2023-04-02T22:35:21.558Z,100096.62
2023-04-02T22:38:23.548Z,100088.91
2023-04-02T22:41:28.376Z,100096.78
2023-04-02T22:44:30.425Z,100096.62
2023-04-02T22:47:32.586Z,100102.63
2023-04-02T22:50:35.038Z,100100.84
2023-04-02T22:53:38.299Z,100107.88
2023-04-02T22:56:40.487Z,100104.38
2023-04-02T22:59:42.570Z,100105.13
2023-04-02T23:02:45.142Z,100096.38
2023-04-02T23:06:01.653Z,100103.34
2023-04-02T23:09:04.314Z,100107.78
2023-04-02T23:12:06.547Z,100099.81
2023-04-02T23:15:10.048Z,100098.28
2023-04-02T23:18:12.150Z,100098.72
2023-04-02T23:21:15.254Z,100089.28
2023-04-02T23:24:17.920Z,100100.81
2023-04-02T23:27:20.742Z,100091.47
2023-04-02T23:30:22.985Z,100105.50
2023-04-02T23:33:25.127Z,100113.38
2023-04-02T23:36:30.187Z,100116.28
2023-04-02T23:39:32.251Z,100109.34
2023-04-02T23:42:34.932Z,100110.31
2023-04-02T23:45:37.035Z,100118.06
2023-04-02T23:48:39.299Z,100114.66
2023-04-02T23:51:41.685Z,100098.25
2023-04-02T23:54:43.894Z,100107.78
2023-04-02T23:57:46.373Z,100105.19
